Main page
METAR-TAF:

METAR-TAF

Airports :

King Fahd International Airport

Dammam, Saudi Arabia

latitude: 26-28N, longitude: 049-47E, elevation: 22 m

Current weather observation

The report was made 17 minutes ago, at 14:00 UTC
Wind 11 kt from the North/Northeast
Temperature 42°C
Humidity 10%
Pressure 996 hPa
Visibility 10 km or more
no clouds below 1500 m and no cumulonimbus

METAR: OEDF 181400Z 02011KT CAVOK 42/04 Q0996 NOSIG

Time: 17:17 (14:17 UTC)

Forecast

The report was made 6 hours and 17 minutes ago, at 08:00 UTC
Forecast valid from 18 at 12 UTC to 19 at 18 UTC
Wind 14 kt from the North/Northeast
Visibility 10 km or more
no clouds below 1500 m and no cumulonimbus
Becoming
from 18 at 18 UTC to 18 at 20 UTC
Wind 6 kt from the West

TAF: OEDF 180800Z 1812/1918 02014KT CAVOK BECMG 1818/1820 28006KT

Weather observations and forecasts of more than 4000 airports (METAR and TAF reports).

The available stations are represented by yellow and red dots on the map.

Hover mouse over dot to see the name of the station.

Then click to see weather observations and forecasts.

To change the map : click on the green buttons with a black cross to zoom in, on the green button with a dash to zoom out, or on the green arrows for adjacent maps.


METAR-TAF: